createdAt,value
2022-10-04T00:00:54.727Z,0.00
2022-10-04T00:01:55.012Z,0.00
2022-10-04T00:02:55.162Z,0.00
2022-10-04T00:03:55.262Z,0.00
2022-10-04T00:04:55.412Z,0.00
2022-10-04T00:05:55.616Z,0.00
2022-10-04T00:06:55.775Z,0.00
2022-10-04T00:07:55.943Z,0.00
2022-10-04T00:08:56.105Z,0.00
2022-10-04T00:09:56.271Z,0.00
2022-10-04T00:10:56.434Z,0.00
2022-10-04T00:11:56.585Z,0.00
2022-10-04T00:12:56.745Z,0.00
2022-10-04T00:13:56.900Z,0.00
2022-10-04T00:14:57.111Z,0.00
2022-10-04T00:15:57.293Z,0.00
2022-10-04T00:16:57.437Z,0.00
2022-10-04T00:17:57.609Z,0.00
2022-10-04T00:18:57.770Z,0.00
2022-10-04T00:19:57.948Z,0.00
2022-10-04T00:20:58.142Z,0.00
2022-10-04T00:21:58.300Z,0.00
2022-10-04T00:22:58.498Z,0.00
2022-10-04T00:23:58.650Z,0.00
2022-10-04T00:24:58.838Z,0.00
2022-10-04T00:25:59.050Z,0.00
2022-10-04T00:26:59.210Z,0.00
2022-10-04T00:27:59.410Z,0.00
2022-10-04T00:28:59.540Z,0.00
2022-10-04T00:29:59.692Z,0.00
2022-10-04T00:30:59.914Z,0.00
2022-10-04T00:32:00.025Z,0.00
2022-10-04T00:33:00.191Z,0.00
2022-10-04T00:34:00.361Z,0.00
2022-10-04T00:35:00.521Z,0.00
2022-10-04T00:36:00.681Z,0.00
2022-10-04T00:37:00.873Z,0.00
2022-10-04T00:38:01.053Z,0.00
2022-10-04T00:39:01.213Z,0.00
2022-10-04T00:40:01.365Z,0.00
2022-10-04T00:41:01.556Z,0.00
2022-10-04T00:42:01.714Z,0.00
2022-10-04T00:43:01.914Z,0.00
2022-10-04T00:44:02.085Z,0.00
2022-10-04T00:45:02.248Z,0.00
2022-10-04T00:46:02.469Z,0.00
2022-10-04T00:47:02.564Z,0.00
2022-10-04T00:48:02.774Z,0.00
2022-10-04T00:49:02.936Z,0.00
2022-10-04T00:50:03.106Z,0.00
2022-10-04T00:51:03.269Z,0.00
2022-10-04T00:52:03.417Z,0.00
2022-10-04T00:53:03.628Z,0.00
2022-10-04T00:54:03.806Z,0.00
2022-10-04T00:55:03.958Z,0.00
2022-10-04T00:56:04.123Z,0.00
2022-10-04T00:57:04.280Z,0.00
2022-10-04T00:58:04.458Z,0.00
2022-10-04T00:59:04.610Z,0.00
2022-10-04T01:00:04.773Z,0.00
2022-10-04T01:01:05.035Z,0.00
2022-10-04T01:02:05.182Z,0.00
2022-10-04T01:03:05.349Z,0.00
2022-10-04T01:04:05.503Z,0.00
2022-10-04T01:05:05.671Z,0.00
2022-10-04T01:06:05.827Z,0.00
2022-10-04T01:07:05.994Z,0.00
2022-10-04T01:08:06.166Z,0.00
2022-10-04T01:09:06.365Z,0.00
2022-10-04T01:10:06.494Z,0.00
2022-10-04T01:11:06.674Z,0.00
2022-10-04T01:12:06.832Z,0.00
2022-10-04T01:13:07.016Z,0.00
2022-10-04T01:14:07.174Z,0.00
2022-10-04T01:15:07.334Z,0.00
2022-10-04T01:16:07.557Z,0.00
2022-10-04T01:17:07.659Z,0.00
2022-10-04T01:18:09.494Z,0.00
2022-10-04T01:19:07.975Z,0.00
2022-10-04T01:20:08.168Z,0.00
2022-10-04T01:21:08.363Z,0.00
2022-10-04T01:22:08.526Z,0.00
2022-10-04T01:23:08.684Z,0.00
2022-10-04T01:24:08.869Z,0.00
2022-10-04T01:25:09.041Z,0.00
2022-10-04T01:26:09.195Z,0.00
2022-10-04T01:27:09.388Z,0.00
2022-10-04T01:28:09.604Z,0.00
2022-10-04T01:29:09.713Z,0.00
2022-10-04T01:30:09.926Z,0.00
2022-10-04T01:31:10.065Z,0.00
2022-10-04T01:32:10.204Z,0.00
2022-10-04T01:33:10.363Z,0.00
2022-10-04T01:34:10.530Z,0.00
2022-10-04T01:35:10.740Z,0.00
2022-10-04T01:36:10.920Z,0.00
2022-10-04T01:37:11.080Z,0.00
2022-10-04T01:38:11.239Z,0.00
2022-10-04T01:39:11.431Z,0.00
2022-10-04T01:40:11.591Z,0.00
2022-10-04T01:41:11.773Z,0.00
2022-10-04T01:42:11.915Z,0.00
2022-10-04T01:43:12.108Z,0.00
2022-10-04T01:44:12.265Z,0.00
2022-10-04T01:45:12.492Z,0.00
2022-10-04T01:46:12.640Z,0.00
2022-10-04T01:47:12.793Z,0.00
2022-10-04T01:48:12.943Z,0.00
2022-10-04T01:49:13.134Z,0.00
2022-10-04T01:50:15.843Z,0.00
2022-10-04T01:51:13.463Z,0.00
2022-10-04T01:52:13.617Z,0.00
2022-10-04T01:53:13.814Z,0.00
2022-10-04T01:54:13.966Z,0.00
2022-10-04T01:55:14.177Z,0.00
2022-10-04T01:56:14.337Z,0.00
2022-10-04T01:57:14.506Z,0.00
2022-10-04T01:58:14.667Z,0.00
2022-10-04T01:59:14.827Z,0.00
2022-10-04T02:00:14.986Z,0.00
2022-10-04T02:01:15.237Z,0.00
2022-10-04T02:02:15.358Z,0.00
2022-10-04T02:03:15.550Z,0.00
2022-10-04T02:04:19.786Z,0.00
2022-10-04T02:05:16.879Z,0.00
2022-10-04T02:06:16.097Z,0.00
2022-10-04T02:07:16.249Z,0.00
2022-10-04T02:08:16.440Z,0.00
2022-10-04T02:09:16.592Z,0.00
2022-10-04T02:10:16.787Z,0.00
2022-10-04T02:11:16.990Z,0.00
2022-10-04T02:12:17.163Z,0.00
2022-10-04T02:13:17.321Z,0.00
2022-10-04T02:14:17.485Z,0.00
2022-10-04T02:15:17.647Z,0.00
2022-10-04T02:16:17.866Z,0.00
2022-10-04T02:17:17.966Z,0.00
2022-10-04T02:18:18.124Z,0.00
2022-10-04T02:19:18.284Z,0.00
2022-10-04T02:20:18.457Z,0.00
2022-10-04T02:21:18.644Z,0.00
2022-10-04T02:22:18.804Z,0.00
2022-10-04T02:23:18.962Z,0.00
2022-10-04T02:24:19.113Z,0.00
2022-10-04T02:25:19.325Z,0.00
2022-10-04T02:26:19.496Z,0.00
2022-10-04T02:27:19.677Z,0.00
2022-10-04T02:28:19.902Z,0.00
2022-10-04T02:29:20.017Z,0.00
2022-10-04T02:30:20.180Z,0.00
2022-10-04T02:31:20.419Z,0.00
2022-10-04T02:32:20.504Z,0.00
2022-10-04T02:33:20.657Z,0.00
2022-10-04T02:34:20.818Z,0.00
2022-10-04T02:35:20.976Z,0.00
2022-10-04T02:36:21.139Z,0.00
2022-10-04T02:37:21.310Z,0.00
2022-10-04T02:38:21.479Z,0.00
2022-10-04T02:39:21.643Z,0.00
2022-10-04T02:40:21.795Z,0.00
2022-10-04T02:41:22.010Z,0.00
2022-10-04T02:42:22.172Z,0.00
2022-10-04T02:43:22.321Z,0.00
2022-10-04T02:44:22.496Z,0.00
2022-10-04T02:45:22.671Z,0.00
2022-10-04T02:46:22.891Z,0.00
2022-10-04T02:47:23.019Z,0.00
2022-10-04T02:48:23.162Z,0.00
2022-10-04T02:49:23.362Z,0.00
2022-10-04T02:50:23.521Z,0.00
2022-10-04T02:51:23.752Z,0.00
2022-10-04T02:52:23.884Z,0.00
2022-10-04T02:53:24.048Z,0.00
2022-10-04T02:54:24.205Z,0.00
2022-10-04T02:55:24.364Z,0.00
2022-10-04T02:56:24.539Z,0.00
2022-10-04T02:57:24.696Z,0.00
2022-10-04T02:58:24.854Z,0.00
2022-10-04T02:59:25.010Z,0.00
2022-10-04T03:00:25.171Z,0.00
2022-10-04T03:01:25.412Z,0.00
2022-10-04T03:02:29.571Z,0.00
2022-10-04T03:03:25.660Z,0.00
2022-10-04T03:04:25.858Z,0.00
2022-10-04T03:05:26.018Z,0.00
2022-10-04T03:06:26.189Z,0.00
2022-10-04T03:07:26.359Z,0.00
2022-10-04T03:08:26.518Z,0.00
2022-10-04T03:09:29.905Z,0.00
2022-10-04T03:10:26.839Z,0.00
2022-10-04T03:11:27.038Z,0.00
2022-10-04T03:12:27.210Z,0.00
2022-10-04T03:13:27.374Z,0.00
2022-10-04T03:14:27.522Z,0.00
2022-10-04T03:15:27.688Z,0.00
2022-10-04T03:16:27.924Z,0.00
2022-10-04T03:17:28.028Z,0.00
2022-10-04T03:18:28.186Z,0.00
2022-10-04T03:19:28.351Z,0.00
2022-10-04T03:20:28.502Z,0.00
2022-10-04T03:21:28.672Z,0.00
2022-10-04T03:22:28.852Z,0.00
2022-10-04T03:23:29.012Z,0.00
2022-10-04T03:24:29.183Z,0.00
2022-10-04T03:25:29.348Z,0.00
2022-10-04T03:26:29.494Z,0.00
2022-10-04T03:27:29.674Z,0.00
2022-10-04T03:28:29.900Z,0.00
2022-10-04T03:29:30.003Z,0.00
2022-10-04T03:30:30.157Z,0.00
2022-10-04T03:31:30.378Z,0.00
2022-10-04T03:32:30.698Z,0.00
2022-10-04T03:33:30.718Z,0.00
2022-10-04T03:34:30.870Z,0.00
2022-10-04T03:35:31.049Z,0.00
2022-10-04T03:36:31.227Z,0.00
2022-10-04T03:37:31.385Z,0.00
2022-10-04T03:38:31.538Z,0.00
2022-10-04T03:39:31.716Z,0.00
2022-10-04T03:40:31.882Z,0.00
2022-10-04T03:41:32.039Z,0.00
2022-10-04T03:42:32.199Z,0.00
2022-10-04T03:43:32.413Z,0.00
2022-10-04T03:44:32.587Z,0.00
2022-10-04T03:45:32.778Z,0.00
2022-10-04T03:46:32.908Z,0.00
2022-10-04T03:47:33.100Z,0.00
2022-10-04T03:48:33.260Z,0.00
2022-10-04T03:49:33.420Z,0.00
2022-10-04T03:50:33.586Z,0.00
2022-10-04T03:51:33.752Z,0.00
2022-10-04T03:52:33.940Z,0.00
2022-10-04T03:53:34.090Z,0.00
2022-10-04T03:54:34.242Z,0.00
2022-10-04T03:55:34.433Z,0.00
2022-10-04T03:56:34.585Z,0.00
2022-10-04T03:57:34.808Z,0.00
2022-10-04T03:58:34.957Z,0.00
2022-10-04T03:59:35.123Z,0.00
2022-10-04T04:00:35.283Z,0.00
2022-10-04T04:01:35.481Z,0.00
2022-10-04T04:02:35.664Z,0.00
2022-10-04T04:03:35.790Z,0.00
2022-10-04T04:04:35.936Z,0.00
2022-10-04T04:05:36.085Z,0.00
2022-10-04T04:06:36.280Z,0.00
2022-10-04T04:07:36.490Z,0.00
2022-10-04T04:08:36.644Z,0.00
2022-10-04T04:09:36.821Z,0.00
2022-10-04T04:10:36.979Z,0.00
2022-10-04T04:11:37.137Z,0.00
2022-10-04T04:12:37.330Z,0.00
2022-10-04T04:13:37.503Z,0.00
2022-10-04T04:15:52.789Z,0.00
2022-10-04T04:16:52.900Z,0.00
2022-10-04T04:17:53.062Z,0.00
2022-10-04T04:18:53.219Z,0.00
2022-10-04T04:19:53.392Z,0.00
2022-10-04T04:20:53.560Z,0.00
2022-10-04T04:21:53.732Z,0.00
2022-10-04T04:22:53.902Z,0.00
2022-10-04T04:23:54.050Z,0.00
2022-10-04T04:24:54.215Z,0.00
2022-10-04T04:25:54.374Z,0.00
2022-10-04T04:26:54.543Z,0.00
2022-10-04T04:27:54.734Z,0.00
2022-10-04T04:28:54.863Z,0.00
2022-10-04T04:29:55.058Z,0.00
2022-10-04T04:30:55.233Z,0.00
2022-10-04T04:31:55.464Z,0.00
2022-10-04T04:32:55.564Z,0.00
2022-10-04T04:33:55.725Z,0.00
2022-10-04T04:34:55.896Z,0.00
2022-10-04T04:35:56.058Z,0.00
2022-10-04T04:36:56.213Z,0.00
2022-10-04T04:37:56.374Z,0.00
2022-10-04T04:38:56.526Z,0.00
2022-10-04T04:39:56.726Z,0.00
2022-10-04T04:40:56.889Z,0.00
2022-10-04T04:41:57.059Z,0.00
2022-10-04T04:42:57.213Z,0.00
2022-10-04T04:43:57.389Z,0.00
2022-10-04T04:44:57.540Z,0.00
2022-10-04T04:46:15.330Z,0.00
2022-10-04T04:46:58.983Z,0.00
2022-10-04T04:47:58.109Z,0.00
2022-10-04T04:48:58.262Z,0.00
2022-10-04T04:49:58.458Z,0.00
2022-10-04T04:50:58.627Z,0.00
2022-10-04T04:51:58.805Z,0.00
2022-10-04T04:52:58.969Z,0.00
2022-10-04T04:53:59.131Z,0.00
2022-10-04T04:54:59.283Z,0.00
2022-10-04T04:56:04.225Z,0.00
2022-10-04T04:57:00.634Z,0.00
2022-10-04T04:57:59.824Z,0.00
2022-10-04T04:58:59.983Z,0.00
2022-10-04T05:00:00.145Z,0.00
2022-10-04T05:01:00.397Z,0.00
2022-10-04T05:02:00.532Z,4.00
2022-10-04T05:03:00.665Z,4.00
2022-10-04T05:04:00.864Z,0.00
2022-10-04T05:05:01.019Z,0.00
2022-10-04T05:06:01.232Z,0.00
2022-10-04T05:07:01.374Z,0.00
2022-10-04T05:08:01.578Z,0.00
2022-10-04T05:09:01.736Z,4.00
2022-10-04T05:10:01.894Z,4.00
2022-10-04T05:11:02.066Z,0.00
2022-10-04T05:12:02.231Z,0.00
2022-10-04T05:13:02.385Z,4.00
2022-10-04T05:14:02.576Z,4.00
2022-10-04T05:15:02.733Z,4.00
2022-10-04T05:16:02.968Z,4.00
2022-10-04T05:17:03.098Z,4.00
2022-10-04T05:18:03.254Z,4.00
2022-10-04T05:19:03.458Z,4.00
2022-10-04T05:20:03.613Z,8.00
2022-10-04T05:21:03.815Z,8.00
2022-10-04T05:22:03.973Z,4.00
2022-10-04T05:23:04.137Z,8.00
2022-10-04T05:24:04.289Z,8.00
2022-10-04T05:25:04.501Z,8.00
2022-10-04T05:26:04.680Z,8.00
2022-10-04T05:27:04.836Z,8.00
2022-10-04T05:28:05.014Z,8.00
2022-10-04T05:29:05.164Z,8.00
2022-10-04T05:30:05.342Z,8.00
2022-10-04T05:31:05.513Z,8.00
2022-10-04T05:32:05.757Z,8.00
2022-10-04T05:33:05.863Z,8.00
2022-10-04T05:34:06.031Z,12.00
2022-10-04T05:35:06.223Z,12.00
2022-10-04T05:36:06.364Z,12.00
2022-10-04T05:37:06.551Z,12.00
2022-10-04T05:38:06.720Z,12.00
2022-10-04T05:39:06.918Z,16.00
2022-10-04T05:40:07.062Z,16.00
2022-10-04T05:41:07.261Z,16.00
2022-10-04T05:42:07.405Z,16.00
2022-10-04T05:43:07.585Z,20.00
2022-10-04T05:44:07.776Z,20.00
2022-10-04T05:45:07.920Z,20.00
2022-10-04T05:46:08.142Z,20.00
2022-10-04T05:47:08.273Z,24.00
2022-10-04T05:48:08.437Z,28.00
2022-10-04T05:49:08.631Z,28.00
2022-10-04T05:50:08.769Z,28.00
2022-10-04T05:51:08.948Z,28.00
2022-10-04T05:52:09.128Z,24.00
2022-10-04T05:53:09.332Z,24.00
2022-10-04T05:54:09.487Z,24.00
2022-10-04T05:55:09.659Z,24.00
2022-10-04T05:56:09.831Z,20.00
2022-10-04T05:57:10.009Z,24.00
2022-10-04T05:58:10.196Z,24.00
2022-10-04T05:59:10.346Z,24.00
2022-10-04T06:00:10.530Z,24.00
2022-10-04T06:01:10.761Z,28.00
2022-10-04T06:02:10.917Z,28.00
2022-10-04T06:03:11.100Z,32.00
2022-10-04T06:04:11.232Z,32.00
2022-10-04T06:05:11.415Z,40.00
2022-10-04T06:06:11.597Z,40.00
2022-10-04T06:07:11.774Z,44.00
2022-10-04T06:08:11.971Z,40.00
2022-10-04T06:09:12.113Z,48.00
2022-10-04T06:10:12.307Z,44.00
2022-10-04T06:11:12.477Z,44.00
2022-10-04T06:12:12.656Z,40.00
2022-10-04T06:13:12.836Z,40.00
2022-10-04T06:14:12.976Z,48.00
2022-10-04T06:15:13.162Z,44.00
2022-10-04T06:16:13.393Z,40.00
2022-10-04T06:17:13.510Z,40.00
2022-10-04T06:18:13.718Z,36.00
2022-10-04T06:19:13.858Z,36.00
2022-10-04T06:20:14.043Z,40.00
2022-10-04T06:21:14.221Z,36.00
2022-10-04T06:22:14.401Z,40.00
2022-10-04T06:23:14.595Z,48.00
2022-10-04T06:24:14.735Z,56.00
2022-10-04T06:25:14.917Z,52.00
2022-10-04T06:26:15.093Z,44.00
2022-10-04T06:27:15.290Z,36.00
2022-10-04T06:28:15.474Z,36.00
2022-10-04T06:29:15.604Z,48.00
2022-10-04T06:30:15.777Z,104.00
2022-10-04T06:31:15.957Z,104.00
2022-10-04T06:32:16.140Z,104.00
2022-10-04T06:33:16.310Z,100.00
2022-10-04T06:34:16.461Z,104.00
2022-10-04T06:35:16.661Z,112.00
2022-10-04T06:36:16.840Z,120.00
2022-10-04T06:37:17.009Z,116.00
2022-10-04T06:38:17.159Z,132.00
2022-10-04T06:39:17.328Z,140.00
2022-10-04T06:40:17.522Z,136.00
2022-10-04T06:41:17.642Z,140.00
2022-10-04T06:42:17.826Z,140.00
2022-10-04T06:43:18.016Z,144.00
2022-10-04T06:44:18.193Z,132.00
2022-10-04T06:45:18.374Z,128.00
2022-10-04T06:46:18.633Z,140.00
2022-10-04T06:47:18.694Z,152.00
2022-10-04T06:48:18.882Z,160.00
2022-10-04T06:49:19.064Z,164.00
2022-10-04T06:50:19.256Z,168.00
2022-10-04T06:51:19.425Z,176.00
2022-10-04T06:52:19.568Z,176.00
2022-10-04T06:53:19.754Z,164.00
2022-10-04T06:54:19.926Z,156.00
2022-10-04T06:55:20.143Z,152.00
2022-10-04T06:56:20.296Z,160.00
2022-10-04T06:57:20.477Z,180.00
2022-10-04T06:58:20.657Z,204.00
2022-10-04T06:59:20.848Z,220.00
2022-10-04T07:00:21.019Z,208.00
2022-10-04T07:01:21.239Z,240.00
2022-10-04T07:02:21.402Z,264.00
2022-10-04T07:03:21.549Z,280.00
2022-10-04T07:04:21.740Z,300.00
2022-10-04T07:05:21.910Z,296.00
2022-10-04T07:06:22.071Z,304.00
2022-10-04T07:07:22.260Z,300.00
2022-10-04T07:08:22.445Z,296.00
2022-10-04T07:09:22.630Z,300.00
2022-10-04T07:10:22.838Z,296.00
2022-10-04T07:11:22.981Z,292.00
2022-10-04T07:12:23.153Z,308.00
2022-10-04T07:13:23.332Z,312.00
2022-10-04T07:14:23.530Z,316.00
2022-10-04T07:15:23.714Z,328.00
2022-10-04T07:16:23.909Z,328.00
2022-10-04T07:17:24.047Z,328.00
2022-10-04T07:18:24.237Z,316.00
2022-10-04T07:19:24.424Z,300.00
2022-10-04T07:20:24.604Z,288.00
2022-10-04T07:21:24.746Z,276.00
2022-10-04T07:22:24.928Z,260.00
2022-10-04T07:23:28.510Z,236.00
2022-10-04T07:24:25.276Z,236.00
2022-10-04T07:25:25.442Z,252.00
2022-10-04T07:26:25.616Z,240.00
2022-10-04T07:27:25.803Z,224.00
2022-10-04T07:28:26.075Z,228.00
2022-10-04T07:29:26.167Z,240.00
2022-10-04T07:30:26.360Z,264.00
2022-10-04T07:31:26.552Z,292.00
2022-10-04T07:32:26.652Z,324.00
2022-10-04T07:33:26.848Z,352.00
2022-10-04T07:34:27.022Z,372.00
2022-10-04T07:35:27.210Z,376.00
2022-10-04T07:36:27.369Z,388.00
2022-10-04T07:37:27.549Z,380.00
2022-10-04T07:38:27.740Z,352.00
2022-10-04T07:39:27.939Z,344.00
2022-10-04T07:40:28.092Z,360.00
2022-10-04T07:41:28.261Z,288.00
2022-10-04T07:42:28.446Z,340.00
2022-10-04T07:43:28.635Z,368.00
2022-10-04T07:44:28.842Z,368.00
2022-10-04T07:45:30.133Z,368.00
2022-10-04T07:46:29.203Z,388.00
2022-10-04T07:47:29.323Z,372.00
2022-10-04T07:48:29.504Z,392.00
2022-10-04T07:49:29.714Z,436.00
2022-10-04T07:50:29.914Z,476.00
2022-10-04T07:51:30.052Z,496.00
2022-10-04T07:52:30.233Z,436.00
2022-10-04T07:53:30.417Z,368.00
2022-10-04T07:54:30.624Z,340.00
2022-10-04T07:55:30.776Z,292.00
2022-10-04T07:56:30.967Z,260.00
2022-10-04T07:57:31.157Z,256.00
2022-10-04T07:58:31.344Z,228.00
2022-10-04T07:59:31.547Z,220.00
2022-10-04T08:00:31.689Z,224.00
2022-10-04T08:01:31.905Z,260.00
2022-10-04T08:02:32.148Z,292.00
2022-10-04T08:03:32.285Z,372.00
2022-10-04T08:04:32.428Z,484.00
2022-10-04T08:05:32.568Z,564.00
2022-10-04T08:06:32.759Z,576.00
2022-10-04T08:07:32.938Z,896.00
2022-10-04T08:08:33.140Z,860.00
2022-10-04T08:09:33.317Z,592.00
2022-10-04T08:10:33.499Z,552.00
2022-10-04T08:11:33.689Z,548.00
2022-10-04T08:12:33.840Z,564.00
2022-10-04T08:13:34.051Z,608.00
2022-10-04T08:14:34.189Z,648.00
2022-10-04T08:15:34.448Z,672.00
2022-10-04T08:16:34.552Z,624.00
2022-10-04T08:17:34.731Z,488.00
2022-10-04T08:18:34.912Z,452.00
2022-10-04T08:19:35.093Z,500.00
2022-10-04T08:20:35.287Z,496.00
2022-10-04T08:21:35.482Z,472.00
2022-10-04T08:22:35.654Z,476.00
2022-10-04T08:23:35.833Z,456.00
2022-10-04T08:24:36.014Z,492.00
2022-10-04T08:25:36.206Z,536.00
2022-10-04T08:26:36.402Z,500.00
2022-10-04T08:27:36.574Z,452.00
2022-10-04T08:28:36.824Z,456.00
2022-10-04T08:29:36.926Z,424.00
2022-10-04T08:30:37.076Z,396.00
2022-10-04T08:31:37.276Z,372.00
2022-10-04T08:32:37.453Z,344.00
2022-10-04T08:33:37.616Z,352.00
2022-10-04T08:34:37.806Z,360.00
2022-10-04T08:35:38.018Z,364.00
2022-10-04T08:36:38.148Z,416.00
2022-10-04T08:37:38.327Z,452.00
2022-10-04T08:38:38.508Z,476.00
2022-10-04T08:39:38.691Z,468.00
2022-10-04T08:40:38.889Z,480.00
2022-10-04T08:41:39.050Z,564.00
2022-10-04T08:42:39.202Z,612.00
2022-10-04T08:43:39.390Z,628.00
2022-10-04T08:44:39.579Z,568.00
2022-10-04T08:45:39.777Z,480.00
2022-10-04T08:46:40.009Z,416.00
2022-10-04T08:47:40.110Z,412.00
2022-10-04T08:48:40.262Z,452.00
2022-10-04T08:49:40.442Z,504.00
2022-10-04T08:50:40.673Z,536.00
2022-10-04T08:51:40.805Z,568.00
2022-10-04T08:52:40.964Z,592.00
2022-10-04T08:53:41.141Z,600.00
2022-10-04T08:54:41.349Z,604.00
2022-10-04T08:55:41.497Z,632.00
2022-10-04T08:56:41.982Z,656.00
2022-10-04T08:57:41.834Z,680.00
2022-10-04T08:58:42.014Z,684.00
2022-10-04T08:59:42.185Z,684.00
2022-10-04T09:00:42.457Z,684.00
2022-10-04T09:01:42.654Z,684.00
2022-10-04T09:02:42.776Z,708.00
2022-10-04T09:03:42.887Z,700.00
2022-10-04T09:04:43.074Z,692.00
2022-10-04T09:05:43.276Z,692.00
2022-10-04T09:06:43.709Z,692.00
2022-10-04T09:07:43.650Z,684.00
2022-10-04T09:08:43.838Z,600.00
2022-10-04T09:09:44.019Z,688.00
2022-10-04T09:10:44.170Z,656.00
2022-10-04T09:11:44.361Z,636.00
2022-10-04T09:12:44.509Z,652.00
2022-10-04T09:13:44.726Z,644.00
2022-10-04T09:14:44.890Z,636.00
2022-10-04T09:15:45.212Z,604.00
2022-10-04T09:16:45.615Z,624.00
2022-10-04T09:17:45.432Z,652.00
2022-10-04T09:18:45.583Z,684.00
2022-10-04T09:19:45.776Z,688.00
2022-10-04T09:20:45.950Z,712.00
2022-10-04T09:21:46.092Z,720.00
2022-10-04T09:22:46.246Z,728.00
2022-10-04T09:23:46.446Z,736.00
2022-10-04T09:24:46.650Z,736.00
2022-10-04T09:25:46.773Z,740.00
2022-10-04T09:26:47.350Z,724.00
2022-10-04T09:27:55.374Z,756.00
2022-10-04T09:28:48.255Z,768.00
2022-10-04T09:29:47.415Z,804.00
2022-10-04T09:30:47.643Z,892.00
2022-10-04T09:31:47.795Z,980.00
2022-10-04T09:32:47.977Z,1116.00
2022-10-04T09:33:48.146Z,1152.00
2022-10-04T09:34:48.298Z,1560.00
2022-10-04T09:35:48.480Z,1624.00
2022-10-04T09:36:48.631Z,1320.00
2022-10-04T09:37:48.777Z,1352.00
2022-10-04T09:38:48.959Z,1472.00
2022-10-04T09:39:49.122Z,1316.00
2022-10-04T09:40:49.298Z,1412.00
2022-10-04T09:41:49.457Z,1336.00
2022-10-04T09:42:49.656Z,1392.00
2022-10-04T09:43:49.782Z,1436.00
2022-10-04T09:44:49.949Z,1496.00
2022-10-04T09:45:50.108Z,1568.00
2022-10-04T09:46:53.283Z,1420.00
2022-10-04T09:47:51.484Z,1260.00
2022-10-04T09:48:50.617Z,1596.00
2022-10-04T09:49:50.783Z,1424.00
2022-10-04T09:50:50.949Z,1420.00
2022-10-04T09:51:51.130Z,1364.00
2022-10-04T09:52:51.292Z,1424.00
2022-10-04T09:53:51.452Z,1556.00
2022-10-04T09:54:51.623Z,1768.00
2022-10-04T09:55:51.847Z,1816.00
2022-10-04T09:56:51.963Z,2016.00
2022-10-04T09:57:52.136Z,1816.00
2022-10-04T09:58:52.313Z,1784.00
2022-10-04T09:59:52.525Z,2352.00
2022-10-04T10:00:52.672Z,2364.00
2022-10-04T10:01:52.866Z,1852.00
2022-10-04T10:02:53.174Z,1928.00
2022-10-04T10:03:53.195Z,2056.00
2022-10-04T10:04:53.432Z,2056.00
2022-10-04T10:05:53.534Z,1848.00
2022-10-04T10:06:53.707Z,1728.00
2022-10-04T10:07:53.896Z,1828.00
2022-10-04T10:08:54.099Z,2936.00
2022-10-04T10:09:54.288Z,2196.00
2022-10-04T10:10:54.429Z,2432.00
2022-10-04T10:11:54.614Z,4032.00
2022-10-04T10:12:54.798Z,3916.00
2022-10-04T10:13:54.999Z,2760.00
2022-10-04T10:14:55.138Z,3184.00
2022-10-04T10:15:55.361Z,3688.00
2022-10-04T10:16:55.510Z,3260.00
2022-10-04T10:17:55.711Z,2736.00
2022-10-04T10:18:55.901Z,3420.00
2022-10-04T10:19:56.077Z,4032.00
2022-10-04T10:20:56.214Z,2724.00
2022-10-04T10:21:56.392Z,2640.00
2022-10-04T10:22:56.581Z,4252.00
2022-10-04T10:23:56.746Z,4036.00
2022-10-04T10:24:58.498Z,3052.00
2022-10-04T10:25:57.068Z,3508.00
2022-10-04T10:26:57.255Z,2752.00
2022-10-04T10:27:57.469Z,2840.00
2022-10-04T10:28:57.611Z,2224.00
2022-10-04T10:29:57.783Z,2768.00
2022-10-04T10:30:58.014Z,5124.00
2022-10-04T10:31:58.136Z,2536.00
2022-10-04T10:32:58.336Z,5608.00
2022-10-04T10:33:58.497Z,4304.00
2022-10-04T10:34:58.685Z,4652.00
2022-10-04T10:35:58.862Z,6484.00
2022-10-04T10:36:59.066Z,5616.00
2022-10-04T10:38:04.306Z,708.00
2022-10-04T10:39:00.358Z,780.00
2022-10-04T10:39:59.524Z,648.00
2022-10-04T10:40:59.710Z,736.00
2022-10-04T10:41:59.908Z,612.00
2022-10-04T10:43:00.084Z,624.00
2022-10-04T10:44:00.277Z,476.00
2022-10-04T10:45:00.429Z,896.00
2022-10-04T10:46:00.611Z,588.00
2022-10-04T10:47:00.884Z,452.00
2022-10-04T10:48:00.972Z,532.00
2022-10-04T10:49:01.166Z,460.00
2022-10-04T10:50:01.320Z,428.00
2022-10-04T10:51:01.543Z,388.00
2022-10-04T10:52:01.692Z,376.00
2022-10-04T10:53:01.862Z,460.00
2022-10-04T10:54:02.053Z,424.00
2022-10-04T10:55:02.208Z,392.00
2022-10-04T10:56:02.424Z,356.00
2022-10-04T10:57:02.544Z,348.00
2022-10-04T10:58:02.725Z,376.00
2022-10-04T10:59:02.934Z,392.00
2022-10-04T11:00:03.075Z,372.00
2022-10-04T11:01:03.268Z,324.00
2022-10-04T11:02:03.502Z,308.00
2022-10-04T11:03:13.060Z,292.00
2022-10-04T11:04:04.880Z,308.00
2022-10-04T11:05:03.949Z,352.00
2022-10-04T11:06:04.139Z,348.00
2022-10-04T11:07:04.338Z,372.00
2022-10-04T11:08:04.501Z,444.00
2022-10-04T11:09:04.669Z,440.00
2022-10-04T11:10:04.861Z,496.00
2022-10-04T11:11:05.052Z,752.00
2022-10-04T11:12:05.241Z,436.00
2022-10-04T11:13:05.438Z,480.00
2022-10-04T11:14:05.572Z,504.00
2022-10-04T11:15:05.753Z,592.00
2022-10-04T11:16:05.977Z,452.00
2022-10-04T11:17:06.125Z,440.00
2022-10-04T11:18:06.256Z,452.00
2022-10-04T11:19:06.437Z,484.00
2022-10-04T11:20:06.625Z,516.00
2022-10-04T11:21:06.811Z,584.00
2022-10-04T11:22:07.002Z,776.00
2022-10-04T11:23:07.175Z,796.00
2022-10-04T11:24:07.430Z,876.00
2022-10-04T11:25:07.548Z,1132.00
2022-10-04T11:26:07.704Z,1688.00
2022-10-04T11:27:07.907Z,5212.00
2022-10-04T11:28:08.070Z,1140.00
2022-10-04T11:29:08.209Z,1368.00
2022-10-04T11:30:08.405Z,1136.00
2022-10-04T11:31:08.649Z,1128.00
2022-10-04T11:32:08.758Z,1124.00
2022-10-04T11:33:08.928Z,1544.00
2022-10-04T11:34:12.149Z,1156.00
2022-10-04T11:35:10.278Z,1272.00
2022-10-04T11:36:09.475Z,1048.00
2022-10-04T11:37:09.623Z,1612.00
2022-10-04T11:38:09.787Z,1320.00
2022-10-04T11:39:09.955Z,896.00
2022-10-04T11:40:10.127Z,824.00
2022-10-04T11:41:10.270Z,960.00
2022-10-04T11:42:10.422Z,1024.00
2022-10-04T11:43:10.611Z,1508.00
2022-10-04T11:44:10.793Z,1404.00
2022-10-04T11:45:10.945Z,1448.00
2022-10-04T11:46:11.371Z,1396.00
2022-10-04T11:47:11.308Z,1084.00
2022-10-04T11:48:11.457Z,828.00
2022-10-04T11:49:11.633Z,604.00
2022-10-04T11:50:11.785Z,844.00
2022-10-04T11:51:11.963Z,1080.00
2022-10-04T11:52:12.154Z,664.00
2022-10-04T11:53:12.319Z,720.00
2022-10-04T11:54:12.484Z,732.00
2022-10-04T11:55:12.635Z,1236.00
2022-10-04T11:56:12.790Z,1360.00
2022-10-04T11:57:12.965Z,1240.00
2022-10-04T11:58:13.116Z,792.00
2022-10-04T11:59:13.272Z,1048.00
2022-10-04T12:00:13.454Z,1008.00
2022-10-04T12:01:13.613Z,1080.00
2022-10-04T12:02:13.787Z,1296.00
2022-10-04T12:03:14.027Z,1052.00
2022-10-04T12:04:14.213Z,952.00
2022-10-04T12:05:14.270Z,956.00
2022-10-04T12:06:14.428Z,952.00
2022-10-04T12:07:14.600Z,952.00
2022-10-04T12:08:14.744Z,904.00
2022-10-04T12:09:14.922Z,1032.00
2022-10-04T12:10:15.069Z,988.00
2022-10-04T12:11:15.236Z,1232.00
2022-10-04T12:12:15.382Z,1124.00
2022-10-04T12:13:15.559Z,824.00
2022-10-04T12:14:15.724Z,1188.00
2022-10-04T12:15:15.887Z,1340.00
2022-10-04T12:16:16.131Z,1268.00
2022-10-04T12:17:16.236Z,1092.00
2022-10-04T12:18:16.384Z,620.00
2022-10-04T12:19:16.586Z,564.00
2022-10-04T12:20:16.744Z,512.00
2022-10-04T12:21:16.924Z,600.00
2022-10-04T12:22:17.077Z,1160.00
2022-10-04T12:23:17.297Z,500.00
2022-10-04T12:24:17.467Z,520.00
2022-10-04T12:25:17.609Z,792.00
2022-10-04T12:26:19.408Z,1348.00
2022-10-04T12:27:17.958Z,544.00
2022-10-04T12:28:18.183Z,488.00
2022-10-04T12:29:18.314Z,728.00
2022-10-04T12:30:18.505Z,1136.00
2022-10-04T12:31:18.687Z,616.00
2022-10-04T12:32:18.874Z,1352.00
2022-10-04T12:33:19.020Z,1424.00
2022-10-04T12:34:19.192Z,784.00
2022-10-04T12:35:19.380Z,392.00
2022-10-04T12:36:19.531Z,636.00
2022-10-04T12:37:19.711Z,688.00
2022-10-04T12:38:19.864Z,1156.00
2022-10-04T12:39:20.024Z,1212.00
2022-10-04T12:40:20.194Z,1116.00
2022-10-04T12:41:20.354Z,1336.00
2022-10-04T12:42:20.533Z,392.00
2022-10-04T12:43:20.673Z,388.00
2022-10-04T12:44:20.855Z,412.00
2022-10-04T12:45:21.046Z,732.00
2022-10-04T12:46:21.250Z,1428.00
2022-10-04T12:47:21.386Z,1164.00
2022-10-04T12:48:21.548Z,1456.00
2022-10-04T12:49:21.723Z,1324.00
2022-10-04T12:50:21.906Z,1092.00
2022-10-04T12:51:22.067Z,1352.00